Terminal Aerodrome Forecast
Issued by NWS Jackson, MS

Home | Current Version | Previous Version | Text Only | Print | Product List | Glossary On
Versions: 1 2 3 4 5 6 7 8 9 10 11 12 13 14 15 16
000
FTUS44 KJAN 152300
TAFMEI
TAF
KMEI 152340Z 1600/1624 02004KT P6SM FEW050 SCT100 BKN200
     FM160900 VRB03KT 5SM BR FEW020 SCT050 BKN200
     FM161400 36004KT P6SM SCT050 BKN120 OVC200
     FM161700 35006KT P6SM VCTS SCT040 BKN060CB BKN150=

USA.gov is the U.S. government's official web portal to all federal, state and local government web resources and services.